Main page
METAR-TAF:

METAR-TAF

Airports :

Lal Bahadur Shastri International Airport

Varanasi, India

latitude: 25-27N, longitude: 082-52E, elevation: 81 m

Current weather observation

The report was made 22 minutes ago, at 21:00 UTC
Calm wind
Temperature 18°C
Humidity 83%
Pressure 1014 hPa
Visibility: 2000 m
mist

METAR: VEBN 282100Z 00000KT 2000 BR NSC 18/15 Q1014 NOSIG

Time: 02:52 (21:22 UTC)

Forecast

The report was made 1 hour and 22 minutes ago, at 20:00 UTC
Forecast valid from 28 at 21 UTC to 29 at 06 UTC
Wind kt from the North
Visibility: 3000 m
mist
Becoming
from 28 at 23 UTC to 29 at 01 UTC
Visibility: 1500 m
mist
Becoming
from 29 at 04 UTC to 29 at 06 UTC
Wind 4 kt from the West/Northwest
Visibility: 3000 m

TAF: VEBN 282000Z 2821/2906 00000KT 3000 BR NSC BECMG 2823/2901 1500 BR BECMG 2904/2906 29004KT 3000 BR/HZ

Weather observations and forecasts of more than 4000 airports (METAR and TAF reports).

The available stations are represented by yellow and red dots on the map.

Hover mouse over dot to see the name of the station.

Then click to see weather observations and forecasts.

To change the map : click on the green buttons with a black cross to zoom in, on the green button with a dash to zoom out, or on the green arrows for adjacent maps.


METAR-TAF: